Nearby METAR Reports

 

KSJC - San Jose, California, USA
Distance from station: NE 9mi, 14km
Updated: Thu, 02-Dec-2021 4:53am MST
Clear
Clear
 Wind from SSE
Wind: SSE 3 mph , 6 km/h
Temperature: 46°F , 8°C
Dew Point: 43°F , 6°C
Humidity: 87%
Barometer: 30.08 inHg , 1018.6 hPa
Clouds: Clear
Visibility: 10 miles , 16 km
2021/12/02 11:53 KSJC 021153Z AUTO 15003KT 10SM CLR 08/06 A3008 RMK AO2 SLP186 T00780056 10122 20072 58002
KNUQ - Moffett Nas/Mtn, California, USA
Distance from station: N 9mi, 14km
Updated: Thu, 02-Dec-2021 5:10am MST
Clear
Clear
 Wind from calm
Wind: Calm
Temperature: 48°F , 9°C
Dew Point: 45°F , 7°C
Humidity: 87%
Barometer: 30.08 inHg , 1018.6 hPa
Clouds: Clear
Visibility: 10 miles , 16 km
2021/12/02 12:10 KNUQ 021210Z AUTO 00000KT 10SM CLR 09/07 A3008 RMK AO2
 
KPAO - Palo Alto, California, USA
Distance from station: NNW 14mi, 23km
Updated: Wed, 01-Dec-2021 9:47pm MST
NOT Current
Clear
Clear
 Wind from calm
Wind: Calm
Temperature: 54°F , 12°C
Dew Point: 48°F , 9°C
Humidity: 82%
Barometer: 30.10 inHg , 1019.3 hPa
Clouds: Clear
Visibility: 10 miles , 16 km
2021/12/02 04:47 KPAO 020447Z 00000KT 10SM SKC 12/09 A3010 A RMK LAST
KRHV - San Jose/Reid, California, USA
Distance from station: ENE 12mi, 19km
Updated: Wed, 01-Dec-2021 10:59pm MST
NOT Current
Clear
Clear
 Wind from calm
Wind: Calm
Temperature: 54°F , 12°C
Dew Point: 45°F , 7°C
Humidity: 72%
Barometer: 30.11 inHg , 1019.6 hPa
Clouds: Clear
Visibility: 10 miles , 16 km
2021/12/02 05:59 KRHV 020559Z 00000KT 10SM SKC 12/07 A3011 RMK LAST
 
KOAK - Oakland, California, USA
Distance from station: NNW 31mi, 50km
Updated: Thu, 02-Dec-2021 4:53am MST
Shallow fog, Clear
Shallow fog, Clear
 Wind from calm
Wind: Calm
Temperature: 46°F , 8°C
Dew Point: 46°F , 8°C
Humidity: 100%
Barometer: 30.09 inHg , 1019 hPa
Summary: Shallow Fog
Clouds: Clear
Visibility: 10 miles , 16 km
2021/12/02 11:53 KOAK 021153Z 00000KT 10SM MIFG CLR 08/08 A3009 RMK AO2 SLP187 T00830078 10128 20078 58005
KSQL - San Carlos Airpo, California, USA
Distance from station: NW 21mi, 34km
Updated: Thu, 02-Dec-2021 5:15am MST
Mist, Clear
Mist, Clear
 Wind from calm
Wind: Calm
Temperature: 48°F , 9°C
Dew Point: 46°F , 8°C
Humidity: 94%
Barometer: 30.09 inHg , 1019 hPa
Summary: Mist
Clouds: Clear
Visibility: 5 miles , 8 km
2021/12/02 12:15 KSQL 021215Z AUTO 00000KT 5SM BR CLR 09/08 A3009 RMK AO2
 
KSFO - San Francisco, California, USA
Distance from station: NW 30mi, 49km
Updated: Thu, 02-Dec-2021 4:56am MST
Clear
Clear
 Wind from calm
Wind: Calm
Temperature: 50°F , 10°C
Dew Point: 48°F , 9°C
Humidity: 94%
Barometer: 30.08 inHg , 1018.6 hPa
Clouds: Clear
Visibility: 9 miles , 14 km
2021/12/02 11:56 KSFO 021156Z 00000KT 9SM CLR 10/09 A3008 RMK AO2 SLP184 T01000089 10156 20100 58005
KE16 - San Martin, California, USA
Distance from station: ESE 27mi, 43km
Updated: Thu, 02-Dec-2021 5:15am MST
Clear
Clear
 Wind from N
Wind: N 3 mph , 6 km/h
Temperature: 41°F , 5°C
Dew Point: 39°F , 4°C
Humidity: 93%
Barometer: 30.11 inHg , 1019.6 hPa
Clouds: Clear
Visibility: 10 miles , 16 km
2021/12/02 12:15 KE16 021215Z AUTO 36003KT 10SM CLR 05/04 A3011 RMK AO2 PWINO PNO
 
KWVI - Watsonville, California, USA
Distance from station: SSE 27mi, 44km
Updated: Thu, 02-Dec-2021 4:53am MST
Clear
Clear
 Wind from calm
Wind: Calm
Temperature: 45°F , 7°C
Dew Point: 41°F , 5°C
Humidity: 87%
Barometer: 30.08 inHg , 1018.6 hPa
Clouds: Clear
Visibility: 10 miles , 16 km
2021/12/02 11:53 KWVI 021153Z AUTO 00000KT 10SM CLR 07/05 A3008 RMK AO2 SLP185 T00670050 10133 20067 58006 $
KHAF - Half Moon Bay, California, USA
Distance from station: WNW 31mi, 50km
Updated: Thu, 02-Dec-2021 5:15am MST
Clear
Clear
 Wind from calm
Wind: Calm
Temperature: 46°F , 8°C
Dew Point: 41°F , 5°C
Humidity: 82%
Barometer: 30.06 inHg , 1017.9 hPa
Clouds: Clear
Visibility: 10 miles , 16 km
2021/12/02 12:15 KHAF 021215Z AUTO 00000KT 10SM CLR 08/05 A3006 RMK AO2
 
KHWD - Hayward, California, USA
Distance from station: N 28mi, 44km
Updated: Thu, 02-Dec-2021 4:54am MST
Clear
Clear
 Wind from NE
Wind: NE 6 mph , 9 km/h
Temperature: 52°F , 11°C
Dew Point: 45°F , 7°C
Humidity: 77%
Barometer: 30.07 inHg , 1018.3 hPa
Clouds: Clear
Visibility: 10 miles , 16 km
2021/12/02 11:54 KHWD 021154Z AUTO 05005KT 10SM CLR 11/07 A3007 RMK AO2 SLP194 T01060067 10133 20094 58004
KLVK - Livermore, California, USA
Distance from station: NNE 31mi, 51km
Updated: Thu, 02-Dec-2021 4:53am MST
Mist, Clear
Mist, Clear
 Wind from calm
Wind: Calm
Temperature: 43°F , 6°C
Dew Point: 39°F , 4°C
Humidity: 87%
Barometer: 30.09 inHg , 1019 hPa
Summary: Mist
Clouds: Clear
Visibility: 5 miles , 8 km
2021/12/02 11:53 KLVK 021153Z AUTO 00000KT 5SM BR CLR 06/04 A3009 RMK AO2 SLP189 T00560039 10094 20050 58003